Time;durP1;ratioP1;P1;durP2;ratioP2;P2;SDS_P1;SDS_P2;PMS_P1;PMS_P2;Temp;Humidity;BMP_temperature;BMP_pressure;BME280_temperature;BME280_humidity;BME280_pressure;Samples;Min_cycle;Max_cycle;Signal;HPM_P1;HPM_P2
2022/12/18 00:01:43;;;;;;;6.35;4.07;;;6.20;99.90;;;;;;5079978;28;20029;-91
2022/12/18 00:04:25;;;;;;;6.40;4.80;;;6.10;99.90;;;;;;5070431;28;20563;-91
2022/12/18 00:06:52;;;;;;;5.07;4.13;;;6.10;99.90;;;;;;5074834;28;20115;-90
2022/12/18 00:09:18;;;;;;;5.70;4.38;;;6.20;99.90;;;;;;5073454;28;20111;-91
2022/12/18 00:11:44;;;;;;;4.72;3.60;;;6.20;99.90;;;;;;5082818;28;20032;-91
2022/12/18 00:14:12;;;;;;;5.30;4.18;;;6.20;99.90;;;;;;5073290;28;20035;-91
2022/12/18 00:16:38;;;;;;;4.47;3.60;;;6.10;99.90;;;;;;5077670;28;20029;-91
2022/12/18 00:19:05;;;;;;;4.68;3.35;;;6.20;99.90;;;;;;5072837;28;20028;-91
2022/12/18 00:21:32;;;;;;;5.80;4.10;;;6.30;99.90;;;;;;5078713;28;20127;-92
2022/12/18 00:23:58;;;;;;;4.32;3.72;;;6.30;99.90;;;;;;5071040;28;20070;-91
2022/12/18 00:26:30;;;;;;;4.22;3.83;;;6.20;99.90;;;;;;5070854;28;20048;-90
2022/12/18 00:28:59;;;;;;;4.82;3.85;;;6.20;99.90;;;;;;5070060;28;20023;-90
2022/12/18 00:31:25;;;;;;;5.30;3.88;;;6.30;99.90;;;;;;5071556;28;20423;-90
2022/12/18 00:33:53;;;;;;;4.20;3.78;;;6.30;99.90;;;;;;5069767;28;20111;-90
2022/12/18 00:36:20;;;;;;;4.18;3.78;;;6.30;99.90;;;;;;5070727;28;20025;-90
2022/12/18 00:38:47;;;;;;;5.13;3.60;;;6.30;99.90;;;;;;5070225;28;20024;-90
2022/12/18 00:42:55;;;;;;;3.35;2.97;;;6.40;99.90;;;;;;5070591;28;20036;-90
2022/12/18 00:44:04;;;;;;;4.43;3.53;;;6.40;99.90;;;;;;5057570;28;20482;-90
2022/12/18 00:46:30;;;;;;;5.10;3.78;;;6.50;99.90;;;;;;5070381;28;20112;-90
2022/12/18 00:48:56;;;;;;;3.85;3.30;;;6.50;99.90;;;;;;5069943;28;20017;-90
2022/12/18 00:51:23;;;;;;;4.20;3.58;;;6.50;99.90;;;;;;5064638;28;20028;-90
2022/12/18 00:53:49;;;;;;;5.00;3.22;;;6.60;99.90;;;;;;5070375;28;20032;-90
2022/12/18 00:56:15;;;;;;;4.57;3.58;;;6.50;99.90;;;;;;5070364;28;20035;-90
2022/12/18 00:58:40;;;;;;;4.05;3.38;;;6.30;99.90;;;;;;5070180;28;20032;-91
2022/12/18 01:01:06;;;;;;;4.47;3.50;;;6.40;99.90;;;;;;5069875;28;20593;-90
2022/12/18 01:03:32;;;;;;;4.82;3.47;;;6.40;99.90;;;;;;5069870;28;20033;-90
2022/12/18 01:05:58;;;;;;;3.72;3.35;;;6.40;99.90;;;;;;5070051;28;20028;-90
2022/12/18 01:08:24;;;;;;;4.20;3.47;;;6.40;99.90;;;;;;5070372;28;20021;-91
2022/12/18 01:10:50;;;;;;;4.47;3.80;;;6.50;99.90;;;;;;5070681;28;20545;-91
2022/12/18 01:13:15;;;;;;;6.05;4.05;;;6.40;99.90;;;;;;5070198;28;20047;-91
2022/12/18 01:15:48;;;;;;;5.72;4.15;;;6.40;99.90;;;;;;5070448;28;20032;-90
2022/12/18 01:18:14;;;;;;;5.15;3.60;;;6.40;99.90;;;;;;5070199;28;20037;-90
2022/12/18 01:20:40;;;;;;;5.53;4.13;;;6.30;99.90;;;;;;5070265;28;20036;-90
2022/12/18 01:23:06;;;;;;;6.93;4.10;;;6.40;99.90;;;;;;5069871;28;20485;-90
2022/12/18 01:25:31;;;;;;;5.05;4.03;;;6.40;99.90;;;;;;5070056;28;20509;-90
2022/12/18 01:27:57;;;;;;;5.50;4.00;;;6.30;99.90;;;;;;5069759;28;20052;-90
2022/12/18 01:30:23;;;;;;;5.93;4.47;;;6.30;99.90;;;;;;5072565;28;20494;-90
2022/12/18 01:32:49;;;;;;;5.60;4.43;;;6.30;99.90;;;;;;5070539;28;20488;-90
2022/12/18 01:35:14;;;;;;;5.78;4.38;;;6.30;99.90;;;;;;5069639;28;20108;-90
2022/12/18 01:37:40;;;;;;;4.78;4.07;;;6.30;99.90;;;;;;5070315;28;20060;-90
2022/12/18 01:40:07;;;;;;;4.65;3.78;;;6.40;99.90;;;;;;5070725;28;20477;-91
2022/12/18 01:42:32;;;;;;;5.93;4.40;;;6.40;99.90;;;;;;5073222;28;20309;-90
2022/12/18 01:45:13;;;;;;;4.30;3.90;;;6.50;99.90;;;;;;5073693;28;20491;-90
2022/12/18 01:47:39;;;;;;;4.40;3.87;;;6.30;99.90;;;;;;5073779;28;20498;-90
2022/12/18 01:50:13;;;;;;;5.25;4.20;;;6.30;99.90;;;;;;5073476;28;20549;-90
2022/12/18 01:52:42;;;;;;;5.90;4.22;;;6.30;99.90;;;;;;5073873;28;20021;-90
2022/12/18 01:55:09;;;;;;;5.30;4.40;;;6.30;99.90;;;;;;5073535;28;20032;-91
2022/12/18 01:57:35;;;;;;;4.53;4.00;;;6.30;99.90;;;;;;5073853;28;20036;-90
2022/12/18 02:00:08;;;;;;;4.50;3.90;;;6.30;99.90;;;;;;5073768;28;20052;-90
2022/12/18 02:02:33;;;;;;;5.47;4.35;;;6.30;99.90;;;;;;5073680;28;20051;-89
2022/12/18 02:05:00;;;;;;;5.60;4.32;;;6.30;99.90;;;;;;5073134;28;20490;-89
2022/12/18 02:07:43;;;;;;;4.40;3.60;;;6.30;99.90;;;;;;5073035;28;20032;-89
2022/12/18 02:10:12;;;;;;;4.13;3.72;;;6.30;99.90;;;;;;5063568;28;20029;-89
2022/12/18 02:12:48;;;;;;;4.75;3.65;;;6.30;99.90;;;;;;5072588;28;20506;-89
2022/12/18 02:15:23;;;;;;;5.03;4.53;;;6.30;99.90;;;;;;5085198;28;20047;-89
2022/12/18 02:18:05;;;;;;;4.40;3.65;;;6.20;99.90;;;;;;5070158;28;20029;-89
2022/12/18 02:20:34;;;;;;;;;;;6.20;99.90;;;;;;5073206;28;20079;-89
2022/12/18 02:22:59;;;;;;;4.15;3.45;;;6.30;99.90;;;;;;5071611;28;19978;-90
2022/12/18 02:25:53;;;;;;;4.53;3.53;;;6.20;99.90;;;;;;5072770;28;20486;-89
2022/12/18 02:28:21;;;;;;;3.53;3.22;;;6.10;99.90;;;;;;5085738;28;20028;-90
2022/12/18 02:30:50;;;;;;;3.88;3.47;;;6.10;99.90;;;;;;5086089;28;20025;-89
2022/12/18 02:33:18;;;;;;;4.35;3.42;;;6.20;99.90;;;;;;5072472;28;20143;-89
2022/12/18 02:35:46;;;;;;;3.60;3.30;;;6.10;99.90;;;;;;5072841;28;20489;-90
2022/12/18 02:38:14;;;;;;;3.95;3.53;;;6.00;99.90;;;;;;5072919;28;20036;-90
2022/12/18 02:40:42;;;;;;;4.40;3.25;;;6.00;99.90;;;;;;5072685;28;20570;-89
2022/12/18 02:43:10;;;;;;;4.43;3.33;;;5.90;99.90;;;;;;5072130;28;20029;-90
2022/12/18 02:45:46;;;;;;;4.25;3.60;;;5.80;99.90;;;;;;5072838;28;20066;-90
2022/12/18 02:48:11;;;;;;;3.95;3.55;;;5.80;99.90;;;;;;5088541;28;20525;-90
2022/12/18 02:51:11;;;;;;;5.93;3.40;;;5.90;99.90;;;;;;5063496;28;20029;-90
2022/12/18 02:53:44;;;;;;;4.15;2.90;;;5.80;99.90;;;;;;5085111;28;20040;-90
2022/12/18 02:56:21;;;;;;;4.00;3.00;;;5.70;99.90;;;;;;5072788;28;20048;-90
2022/12/18 02:59:09;;;;;;;3.92;2.97;;;5.70;99.90;;;;;;5072653;28;20099;-91
2022/12/18 03:01:59;;;;;;;4.10;3.30;;;5.70;99.90;;;;;;5072047;28;20062;-90
2022/12/18 03:04:58;;;;;;;3.25;2.97;;;5.70;99.90;;;;;;5072045;28;20024;-90
2022/12/18 03:07:34;;;;;;;3.90;3.50;;;5.70;99.90;;;;;;5072469;28;20040;-91
2022/12/18 03:10:01;;;;;;;4.07;3.33;;;5.70;99.90;;;;;;5073108;28;20035;-90
2022/12/18 03:12:35;;;;;;;4.32;3.58;;;5.70;99.90;;;;;;5072148;28;20035;-90
2022/12/18 03:15:14;;;;;;;3.47;2.88;;;5.60;99.90;;;;;;5072351;28;20031;-90
2022/12/18 03:17:46;;;;;;;2.88;2.63;;;5.50;99.90;;;;;;5072494;28;20028;-90
2022/12/18 03:20:18;;;;;;;4.55;3.53;;;5.40;99.90;;;;;;5072456;28;20032;-90
2022/12/18 03:22:49;;;;;;;4.43;3.60;;;5.50;99.90;;;;;;5078622;28;20036;-89
2022/12/18 03:25:17;;;;;;;4.03;3.58;;;5.40;99.90;;;;;;5071351;28;20020;-90
2022/12/18 03:27:48;;;;;;;3.67;3.13;;;5.20;99.90;;;;;;5079302;28;20071;-90
2022/12/18 03:30:15;;;;;;;3.33;3.03;;;5.20;99.90;;;;;;5085215;28;20031;-90
2022/12/18 03:33:05;;;;;;;3.33;2.88;;;5.20;99.90;;;;;;5071114;28;20032;-89
2022/12/18 03:35:35;;;;;;;3.97;3.08;;;5.10;99.90;;;;;;5071809;28;20024;-89
2022/12/18 03:38:01;;;;;;;4.43;3.38;;;5.00;99.90;;;;;;5071316;28;20474;-89
2022/12/18 03:40:41;;;;;;;3.20;2.85;;;5.00;99.90;;;;;;5071266;28;20032;-89
2022/12/18 03:43:15;;;;;;;4.45;3.47;;;4.90;99.90;;;;;;5070171;28;20032;-89
2022/12/18 03:45:56;;;;;;;3.88;2.97;;;4.80;99.90;;;;;;5071208;28;20016;-89
2022/12/18 03:48:31;;;;;;;3.97;3.13;;;4.90;99.90;;;;;;5071207;28;20101;-89
2022/12/18 03:50:56;;;;;;;3.88;3.38;;;4.90;99.90;;;;;;5059393;28;20028;-89
2022/12/18 03:53:32;;;;;;;3.38;2.95;;;5.00;99.90;;;;;;5069120;28;20039;-89
2022/12/18 03:56:00;;;;;;;4.30;3.47;;;5.00;99.90;;;;;;5071364;28;20078;-89
2022/12/18 03:58:27;;;;;;;3.53;2.97;;;4.90;99.90;;;;;;5071155;28;20486;-90
2022/12/18 04:00:56;;;;;;;3.47;2.75;;;4.90;99.90;;;;;;5070779;28;20115;-90
2022/12/18 04:03:24;;;;;;;3.45;3.00;;;4.80;99.90;;;;;;5070351;28;20029;-89
2022/12/18 04:05:52;;;;;;;4.88;3.50;;;5.00;99.90;;;;;;5071844;28;20567;-90
2022/12/18 04:08:18;;;;;;;3.95;3.28;;;5.00;99.90;;;;;;5076509;28;20059;-89
2022/12/18 04:10:44;;;;;;;3.78;2.90;;;5.00;99.90;;;;;;5084311;28;20416;-91
2022/12/18 04:13:10;;;;;;;4.60;3.75;;;5.00;99.90;;;;;;5076647;28;20402;-89
2022/12/18 04:15:37;;;;;;;4.20;3.47;;;5.00;99.90;;;;;;5071039;28;20490;-90
2022/12/18 04:18:03;;;;;;;4.65;3.53;;;4.90;99.90;;;;;;5077492;28;20497;-90
2022/12/18 04:20:29;;;;;;;5.72;3.55;;;4.80;99.90;;;;;;5072164;28;20028;-90
2022/12/18 04:22:54;;;;;;;4.38;3.58;;;4.90;99.90;;;;;;5080033;28;20401;-90
2022/12/18 04:25:20;;;;;;;3.90;3.25;;;4.90;99.90;;;;;;5071169;28;20103;-90
2022/12/18 04:27:46;;;;;;;5.40;3.70;;;4.90;99.90;;;;;;5081727;28;20049;-90
2022/12/18 04:30:12;;;;;;;4.28;3.17;;;4.80;99.90;;;;;;5084109;28;20474;-90
2022/12/18 04:32:37;;;;;;;4.70;3.53;;;4.80;99.90;;;;;;5070973;28;20024;-90
2022/12/18 04:35:06;;;;;;;4.10;3.30;;;4.80;99.90;;;;;;5071053;28;20047;-90
2022/12/18 04:37:32;;;;;;;4.40;3.45;;;4.70;99.90;;;;;;5077354;28;20548;-90
2022/12/18 04:39:57;;;;;;;4.90;3.42;;;4.70;99.90;;;;;;5077676;28;20155;-91
2022/12/18 04:42:23;;;;;;;4.13;3.55;;;4.70;99.90;;;;;;5084949;28;20036;-90
2022/12/18 04:44:49;;;;;;;3.90;3.05;;;4.70;99.90;;;;;;5070987;28;20101;-90
2022/12/18 04:47:15;;;;;;;4.07;3.15;;;4.70;99.90;;;;;;5070932;28;20074;-91
2022/12/18 04:49:40;;;;;;;5.93;3.85;;;4.70;99.90;;;;;;5070835;28;20067;-91
2022/12/18 04:52:06;;;;;;;4.05;3.65;;;4.70;99.90;;;;;;5070372;28;20070;-90
2022/12/18 04:54:32;;;;;;;4.40;3.40;;;4.60;99.90;;;;;;5069918;28;20486;-90
2022/12/18 04:56:58;;;;;;;5.07;3.60;;;4.50;99.90;;;;;;5072074;28;20020;-90
2022/12/18 04:59:23;;;;;;;3.95;3.42;;;4.60;99.90;;;;;;5075686;28;20059;-90
2022/12/18 05:01:49;;;;;;;4.93;3.72;;;4.50;99.90;;;;;;5070807;28;20025;-89
2022/12/18 05:04:15;;;;;;;5.18;3.78;;;4.60;99.90;;;;;;5070688;28;20063;-90
2022/12/18 05:06:40;;;;;;;5.47;3.83;;;4.60;99.90;;;;;;5070483;28;20444;-90
2022/12/18 05:09:07;;;;;;;3.50;3.00;;;4.60;99.90;;;;;;5070195;28;20024;-89
2022/12/18 05:11:32;;;;;;;4.95;3.67;;;4.60;99.90;;;;;;5070330;28;20029;-90
2022/12/18 05:13:58;;;;;;;4.53;3.42;;;4.40;99.90;;;;;;5070837;28;20025;-90
2022/12/18 05:16:24;;;;;;;4.53;3.47;;;4.40;99.90;;;;;;5074123;28;20493;-90
2022/12/18 05:18:49;;;;;;;4.00;2.90;;;4.30;99.90;;;;;;5074458;28;20059;-89
2022/12/18 05:21:15;;;;;;;4.00;2.92;;;4.30;99.90;;;;;;5073842;28;20028;-90
2022/12/18 05:23:41;;;;;;;3.40;3.03;;;4.30;99.90;;;;;;5074064;28;20553;-89
2022/12/18 05:26:07;;;;;;;4.30;3.22;;;4.30;99.90;;;;;;5074244;28;20573;-89
2022/12/18 05:28:34;;;;;;;4.00;3.08;;;4.30;99.90;;;;;;5085771;28;20043;-89
2022/12/18 05:31:02;;;;;;;3.00;2.60;;;4.40;99.90;;;;;;5081686;28;20028;-90
2022/12/18 05:33:31;;;;;;;5.22;3.60;;;4.30;99.90;;;;;;5082701;28;20141;-90
2022/12/18 05:35:59;;;;;;;3.88;3.25;;;4.30;99.90;;;;;;5074088;28;20501;-89
2022/12/18 05:38:27;;;;;;;3.97;3.22;;;4.30;99.90;;;;;;5074507;28;20544;-89
2022/12/18 05:40:53;;;;;;;5.78;4.13;;;4.30;99.90;;;;;;5073774;28;20032;-89
2022/12/18 05:43:21;;;;;;;4.07;3.42;;;4.20;99.90;;;;;;5072999;28;20029;-89
2022/12/18 05:45:47;;;;;;;4.07;2.90;;;4.20;99.90;;;;;;5083395;28;20031;-89
2022/12/18 05:48:13;;;;;;;4.35;3.10;;;4.10;99.90;;;;;;5085149;28;20029;-90
2022/12/18 05:50:41;;;;;;;4.85;3.50;;;4.00;99.90;;;;;;5073893;28;20025;-90
2022/12/18 05:53:08;;;;;;;3.33;2.83;;;4.00;99.90;;;;;;5072593;28;20028;-90
2022/12/18 05:55:38;;;;;;;3.80;3.40;;;4.10;99.90;;;;;;5073723;28;20078;-90
2022/12/18 05:58:05;;;;;;;4.28;3.40;;;4.10;99.90;;;;;;5076533;28;20516;-90
2022/12/18 06:00:33;;;;;;;4.10;3.05;;;4.10;99.90;;;;;;5073097;28;20044;-90
2022/12/18 06:02:59;;;;;;;4.65;3.30;;;4.00;99.90;;;;;;5073158;28;20116;-90
2022/12/18 06:05:25;;;;;;;3.50;2.83;;;4.10;99.90;;;;;;5073622;28;20033;-90
2022/12/18 06:07:51;;;;;;;3.58;3.00;;;4.00;99.90;;;;;;5085586;28;20406;-89
2022/12/18 06:10:17;;;;;;;3.80;3.22;;;3.90;99.90;;;;;;5084174;28;20103;-90
2022/12/18 06:12:42;;;;;;;3.70;2.75;;;3.90;99.90;;;;;;5078932;28;20210;-90
2022/12/18 06:15:08;;;;;;;3.95;3.13;;;4.00;99.90;;;;;;5082814;28;20505;-89
2022/12/18 06:17:34;;;;;;;3.90;3.28;;;3.80;99.90;;;;;;5087259;28;20060;-90
2022/12/18 06:20:01;;;;;;;3.45;3.00;;;3.80;99.90;;;;;;5073370;28;20071;-90
2022/12/18 06:22:27;;;;;;;3.80;2.92;;;3.70;99.90;;;;;;5073051;28;20054;-90
2022/12/18 06:24:53;;;;;;;4.43;3.30;;;3.70;99.90;;;;;;5073013;28;20036;-90
2022/12/18 06:27:19;;;;;;;3.70;3.25;;;3.90;99.90;;;;;;5085078;28;20109;-89
2022/12/18 06:29:45;;;;;;;4.30;3.28;;;3.90;99.90;;;;;;5072664;28;20501;-89
2022/12/18 06:32:11;;;;;;;3.55;3.22;;;3.90;99.90;;;;;;5071798;28;20538;-89
2022/12/18 06:34:40;;;;;;;3.45;3.15;;;3.90;99.90;;;;;;5072314;28;20041;-90
2022/12/18 06:37:06;;;;;;;4.03;3.35;;;3.90;99.90;;;;;;5072168;28;20029;-89
2022/12/18 06:39:31;;;;;;;3.35;2.83;;;3.70;99.90;;;;;;5072672;28;20567;-90
2022/12/18 06:41:57;;;;;;;4.13;3.05;;;3.60;99.90;;;;;;5075896;28;20479;-89
2022/12/18 06:44:23;;;;;;;4.03;2.90;;;3.70;99.90;;;;;;5077024;28;20052;-89
2022/12/18 06:46:49;;;;;;;3.45;3.10;;;3.60;99.90;;;;;;5072854;28;20032;-89
2022/12/18 06:49:15;;;;;;;2.97;2.67;;;3.70;99.90;;;;;;5072630;28;20027;-90
2022/12/18 06:51:41;;;;;;;3.22;2.90;;;3.60;99.90;;;;;;5058935;28;20028;-89
2022/12/18 06:54:07;;;;;;;4.47;3.60;;;3.60;99.90;;;;;;5071705;28;20028;-89
2022/12/18 06:56:33;;;;;;;4.18;3.33;;;3.60;99.90;;;;;;5072398;28;20040;-90
2022/12/18 06:58:59;;;;;;;3.85;3.25;;;3.60;99.90;;;;;;5083500;28;20043;-89
2022/12/18 07:01:24;;;;;;;5.88;3.47;;;3.60;99.90;;;;;;5078501;28;20036;-89
2022/12/18 07:03:55;;;;;;;3.53;3.22;;;3.60;99.90;;;;;;5080759;28;20066;-89
2022/12/18 07:06:22;;;;;;;3.03;2.72;;;3.40;99.90;;;;;;5076892;28;20028;-89
2022/12/18 07:08:49;;;;;;;3.38;2.85;;;3.40;99.90;;;;;;5083004;28;20199;-89
2022/12/18 07:11:16;;;;;;;3.45;2.85;;;3.40;99.90;;;;;;5071925;28;20115;-89
2022/12/18 07:13:42;;;;;;;3.13;2.83;;;3.30;99.90;;;;;;5076086;28;20124;-90
2022/12/18 07:16:13;;;;;;;3.10;2.80;;;3.40;99.90;;;;;;5076750;28;20511;-90
2022/12/18 07:18:38;;;;;;;;;;;3.40;99.90;;;;;;5080025;28;20048;-90
2022/12/18 07:21:06;;;;;;;3.47;3.13;;;3.40;99.90;;;;;;5071598;28;19951;-90
2022/12/18 07:23:34;;;;;;;4.70;3.45;;;3.40;99.90;;;;;;5072091;28;20060;-90
2022/12/18 07:26:11;;;;;;;3.22;2.78;;;3.40;99.90;;;;;;5071335;28;20021;-89
2022/12/18 07:28:38;;;;;;;3.58;2.55;;;3.20;99.90;;;;;;5071519;28;20047;-89
2022/12/18 07:31:15;;;;;;;4.43;3.38;;;3.30;99.90;;;;;;5079014;28;20153;-90
2022/12/18 07:33:41;;;;;;;4.13;2.78;;;3.30;99.90;;;;;;5089459;28;20024;-90
2022/12/18 07:36:09;;;;;;;3.08;2.78;;;3.40;99.90;;;;;;5071573;28;20025;-90
2022/12/18 07:38:35;;;;;;;4.40;3.33;;;3.40;99.90;;;;;;5072030;28;20119;-90
2022/12/18 07:41:10;;;;;;;4.03;3.53;;;3.40;99.90;;;;;;5071896;28;20561;-90
2022/12/18 07:43:36;;;;;;;3.65;2.80;;;3.50;99.90;;;;;;5071665;28;20173;-90
2022/12/18 07:46:02;;;;;;;6.68;4.70;;;3.40;99.90;;;;;;5071592;28;20021;-91
2022/12/18 07:48:29;;;;;;;8.13;5.18;;;3.50;99.90;;;;;;5068273;28;20202;-89
2022/12/18 07:50:58;;;;;;;9.25;5.80;;;3.50;99.90;;;;;;5067782;28;20024;-89
2022/12/18 07:53:24;;;;;;;9.40;5.78;;;3.80;99.90;;;;;;5073146;28;20039;-90
2022/12/18 07:55:58;;;;;;;11.55;6.32;;;3.90;99.90;;;;;;5072963;28;20390;-90
2022/12/18 07:58:24;;;;;;;12.38;7.03;;;3.80;99.90;;;;;;5070865;28;20043;-90
2022/12/18 08:00:50;;;;;;;12.50;7.47;;;3.80;99.90;;;;;;5071937;28;20032;-90
2022/12/18 08:03:16;;;;;;;12.40;7.18;;;4.00;99.90;;;;;;5070596;28;20387;-90
2022/12/18 08:05:42;;;;;;;12.75;6.95;;;4.10;99.90;;;;;;5083232;28;20440;-90
2022/12/18 08:08:07;;;;;;;11.63;7.32;;;4.20;99.90;;;;;;5086979;28;20029;-90
2022/12/18 08:10:33;;;;;;;13.15;7.65;;;4.30;99.90;;;;;;5070568;28;20075;-90
2022/12/18 08:12:59;;;;;;;12.70;8.02;;;4.40;99.90;;;;;;5071268;28;20024;-89
2022/12/18 08:15:24;;;;;;;13.93;7.68;;;4.40;99.90;;;;;;5070558;28;20090;-89
2022/12/18 08:17:50;;;;;;;12.85;7.38;;;4.40;99.90;;;;;;5070287;28;20028;-90
2022/12/18 08:20:18;;;;;;;14.55;8.00;;;4.40;99.90;;;;;;5069024;28;20020;-89
2022/12/18 08:22:44;;;;;;;15.70;8.90;;;4.40;99.90;;;;;;5071884;28;20115;-89
2022/12/18 08:25:10;;;;;;;14.85;8.25;;;4.40;99.90;;;;;;5069788;28;20050;-87
2022/12/18 08:27:36;;;;;;;13.50;9.00;;;4.60;99.90;;;;;;5071295;28;20063;-90
2022/12/18 08:30:02;;;;;;;16.45;8.75;;;4.50;99.90;;;;;;5072910;28;20017;-90
2022/12/18 08:32:28;;;;;;;16.40;9.98;;;4.60;99.90;;;;;;5069794;28;20024;-90
2022/12/18 08:34:54;;;;;;;16.15;9.27;;;4.60;99.90;;;;;;5071256;28;20032;-90
2022/12/18 08:37:19;;;;;;;17.83;10.75;;;4.70;99.90;;;;;;5070751;28;20028;-90
2022/12/18 08:39:45;;;;;;;17.10;10.18;;;4.80;99.90;;;;;;5070851;28;20028;-91
2022/12/18 08:44:57;;;;;;;15.23;8.48;;;5.40;99.90;;;;;;5070204;28;20032;-90
2022/12/18 08:47:22;;;;;;;18.38;9.75;;;5.50;99.90;;;;;;5068103;28;20028;-88
2022/12/18 08:49:48;;;;;;;13.40;8.68;;;5.50;99.90;;;;;;5073236;28;20150;-89
2022/12/18 08:52:13;;;;;;;14.18;8.57;;;5.70;99.90;;;;;;5076433;28;20326;-89
2022/12/18 08:54:39;;;;;;;13.45;8.32;;;5.80;99.90;;;;;;5077421;28;20409;-89
2022/12/18 08:57:05;;;;;;;11.18;7.63;;;5.80;99.90;;;;;;5076212;28;20533;-90
2022/12/18 08:59:30;;;;;;;11.98;7.32;;;6.10;99.90;;;;;;5078167;28;20031;-89
2022/12/18 09:01:56;;;;;;;10.68;6.72;;;8.10;99.90;;;;;;5076296;28;20033;-89
2022/12/18 09:04:22;;;;;;;9.88;6.30;;;8.90;99.90;;;;;;5077464;28;20440;-89
2022/12/18 09:06:48;;;;;;;11.60;7.47;;;9.80;99.90;;;;;;5076651;28;20032;-89
2022/12/18 09:09:14;;;;;;;12.27;7.20;;;11.20;99.90;;;;;;5076189;28;20024;-88
2022/12/18 09:11:39;;;;;;;9.23;6.90;;;12.00;99.90;;;;;;5077076;28;20017;-89
2022/12/18 09:14:05;;;;;;;8.68;6.18;;;11.40;99.90;;;;;;5080413;28;21273;-89
2022/12/18 09:16:31;;;;;;;7.07;5.57;;;9.60;99.90;;;;;;5073393;28;20032;-90
2022/12/18 09:19:01;;;;;;;7.70;5.60;;;8.90;99.90;;;;;;5075591;28;20292;-90
2022/12/18 09:21:33;;;;;;;10.60;6.68;;;8.40;99.90;;;;;;5077340;28;20025;-90
2022/12/18 09:23:59;;;;;;;7.95;5.90;;;8.30;99.90;;;;;;5074621;28;20032;-90
2022/12/18 09:26:26;;;;;;;8.85;5.65;;;8.20;99.90;;;;;;5076787;28;20060;-90
2022/12/18 09:28:52;;;;;;;8.40;6.22;;;8.30;99.90;;;;;;5079803;28;20024;-90
2022/12/18 09:31:20;;;;;;;8.35;5.30;;;8.30;99.90;;;;;;5076844;28;20036;-90
2022/12/18 09:33:46;;;;;;;8.05;5.80;;;8.40;99.90;;;;;;5074183;28;20031;-90
2022/12/18 09:36:15;;;;;;;5.82;5.00;;;8.40;99.90;;;;;;5076904;28;20100;-90
2022/12/18 09:38:42;;;;;;;7.30;4.95;;;8.50;99.90;;;;;;5078335;28;20048;-89
2022/12/18 09:41:39;;;;;;;8.32;5.30;;;8.60;99.90;;;;;;5078346;28;20030;-90
2022/12/18 09:44:26;;;;;;;5.97;4.90;;;8.70;99.90;;;;;;5075877;28;20036;-90
2022/12/18 09:47:01;;;;;;;8.43;5.28;;;8.70;99.90;;;;;;5076489;28;20021;-90
2022/12/18 09:49:29;;;;;;;8.65;5.97;;;8.80;99.90;;;;;;5083656;28;20036;-89
2022/12/18 09:52:05;;;;;;;7.57;5.65;;;8.80;99.90;;;;;;5076349;28;20033;-90
2022/12/18 09:54:40;;;;;;;7.53;5.35;;;8.90;99.90;;;;;;5075902;28;20035;-90
2022/12/18 09:57:10;;;;;;;8.55;5.82;;;9.00;99.90;;;;;;5075168;28;20054;-90
2022/12/18 09:59:39;;;;;;;10.45;5.60;;;9.00;99.90;;;;;;5078131;28;20039;-90
2022/12/18 10:02:21;;;;;;;8.00;5.15;;;9.10;99.90;;;;;;5079957;28;20157;-90
2022/12/18 10:05:10;;;;;;;7.85;5.63;;;9.10;99.90;;;;;;5074639;28;20154;-89
2022/12/18 10:07:50;;;;;;;8.38;5.38;;;9.20;99.90;;;;;;5072659;28;20016;-89
2022/12/18 10:10:46;;;;;;;7.78;5.68;;;9.30;99.90;;;;;;5064021;28;20115;-90
2022/12/18 10:13:36;;;;;;;8.13;5.75;;;9.30;99.90;;;;;;5072943;28;20074;-90
2022/12/18 10:16:14;;;;;;;6.57;4.88;;;9.40;99.90;;;;;;5085166;28;20032;-89
2022/12/18 10:18:40;;;;;;;10.27;6.07;;;9.40;99.90;;;;;;5073246;28;20052;-90
2022/12/18 10:21:19;;;;;;;7.38;4.85;;;9.40;99.90;;;;;;5072887;28;20079;-89
2022/12/18 10:23:56;;;;;;;7.47;5.35;;;9.40;99.90;;;;;;5074234;28;20029;-89
2022/12/18 10:26:23;;;;;;;6.18;4.70;;;9.40;99.90;;;;;;5073134;28;20505;-89
2022/12/18 10:28:49;;;;;;;7.65;4.30;;;9.40;99.90;;;;;;5075638;28;20020;-89
2022/12/18 10:31:18;;;;;;;7.68;5.20;;;9.40;99.90;;;;;;5074044;28;20052;-89
2022/12/18 10:33:44;;;;;;;7.82;4.65;;;9.40;99.90;;;;;;5073306;28;20119;-88
2022/12/18 10:36:10;;;;;;;8.20;4.75;;;9.50;99.90;;;;;;5072389;28;20039;-89
2022/12/18 10:38:36;;;;;;;4.78;4.20;;;9.60;99.90;;;;;;5073596;28;20572;-89
2022/12/18 10:41:25;;;;;;;6.10;4.28;;;9.70;99.90;;;;;;5071392;28;20558;-88
2022/12/18 10:44:11;;;;;;;4.97;4.07;;;9.80;99.90;;;;;;5072318;28;20020;-88
2022/12/18 10:46:36;;;;;;;4.72;3.63;;;9.70;99.90;;;;;;5069520;28;20024;-88
2022/12/18 10:49:02;;;;;;;6.68;3.58;;;9.70;99.90;;;;;;5071523;28;20568;-88
2022/12/18 10:51:34;;;;;;;7.10;4.32;;;9.80;99.90;;;;;;5071714;28;20029;-88
2022/12/18 10:54:01;;;;;;;4.22;3.80;;;9.70;99.90;;;;;;5072272;28;20036;-88
2022/12/18 10:56:29;;;;;;;6.85;4.32;;;9.70;99.90;;;;;;5089515;28;20034;-88
2022/12/18 10:59:06;;;;;;;8.23;4.13;;;9.80;99.90;;;;;;5072791;28;20032;-89
2022/12/18 11:01:54;;;;;;;6.45;4.40;;;9.80;99.90;;;;;;5085226;28;20028;-89
2022/12/18 11:04:29;;;;;;;5.57;4.03;;;9.80;99.90;;;;;;5072605;28;20024;-89
2022/12/18 11:07:02;;;;;;;6.57;3.97;;;9.80;99.90;;;;;;5072497;28;20021;-88
2022/12/18 11:09:36;;;;;;;5.05;3.63;;;9.80;99.90;;;;;;5074816;28;20562;-88
2022/12/18 11:12:14;;;;;;;5.57;3.90;;;10.00;99.90;;;;;;5070953;28;20090;-88
2022/12/18 11:14:43;;;;;;;6.00;4.03;;;10.00;99.90;;;;;;5072336;28;20052;-88
2022/12/18 11:17:34;;;;;;;5.60;4.28;;;9.80;99.90;;;;;;5071608;28;20071;-88
2022/12/18 11:20:03;;;;;;;5.57;4.47;;;9.70;99.90;;;;;;5071821;28;20029;-88
2022/12/18 11:22:32;;;;;;;5.00;3.90;;;9.80;99.90;;;;;;5071668;28;20043;-88
2022/12/18 11:25:16;;;;;;;5.40;4.07;;;10.00;99.90;;;;;;5071993;28;20020;-88
2022/12/18 11:28:19;;;;;;;5.20;4.22;;;10.10;99.90;;;;;;5059130;28;20052;-88
2022/12/18 11:30:45;;;;;;;4.63;3.88;;;10.10;99.90;;;;;;4998855;28;20049;-88
2022/12/18 11:33:22;;;;;;;4.43;3.60;;;10.10;99.90;;;;;;5002285;28;20038;-88
2022/12/18 11:35:52;;;;;;;4.95;3.80;;;10.00;99.90;;;;;;5005098;28;20036;-88
2022/12/18 11:38:23;;;;;;;5.10;3.78;;;10.00;99.90;;;;;;5002575;28;20026;-88
2022/12/18 11:42:08;;;;;;;5.30;3.90;;;10.10;99.90;;;;;;5000877;28;20520;-88
2022/12/18 11:44:14;;;;;;;5.55;4.20;;;10.00;99.90;;;;;;4998191;28;20080;-87
2022/12/18 11:46:51;;;;;;;8.02;4.05;;;10.10;99.90;;;;;;4992892;28;20074;-88
2022/12/18 11:49:28;;;;;;;4.25;3.85;;;10.10;99.90;;;;;;4989080;28;20554;-87
2022/12/18 11:52:00;;;;;;;4.57;4.03;;;10.20;99.90;;;;;;5000718;28;20053;-88
2022/12/18 11:54:26;;;;;;;5.88;3.88;;;10.10;99.90;;;;;;4992229;28;20125;-88
2022/12/18 11:57:16;;;;;;;4.93;3.40;;;10.20;99.90;;;;;;5010395;28;20137;-87
2022/12/18 11:59:56;;;;;;;4.95;3.50;;;10.20;99.90;;;;;;4997443;28;20127;-88
2022/12/18 12:02:25;;;;;;;4.47;3.50;;;10.30;99.90;;;;;;5001505;28;20030;-87
2022/12/18 12:05:17;;;;;;;4.18;3.17;;;10.30;99.90;;;;;;5003313;28;20058;-87
2022/12/18 12:08:08;;;;;;;4.50;3.50;;;10.30;99.90;;;;;;5070987;28;20039;-87
2022/12/18 12:10:55;;;;;;;4.20;2.80;;;10.40;99.90;;;;;;5062091;28;20039;-88
2022/12/18 12:13:52;;;;;;;6.78;3.38;;;10.30;99.90;;;;;;5078492;28;20351;-87
2022/12/18 12:16:49;;;;;;;5.40;3.80;;;10.40;99.90;;;;;;4995604;28;20042;-88
2022/12/18 12:19:29;;;;;;;5.28;3.67;;;10.40;99.90;;;;;;4967146;28;20050;-87
2022/12/18 12:22:13;;;;;;;4.45;3.95;;;10.30;99.90;;;;;;4988194;28;20039;-87
2022/12/18 12:24:42;;;;;;;4.20;3.33;;;10.40;99.90;;;;;;4985226;28;20038;-87
2022/12/18 12:27:35;;;;;;;5.75;3.67;;;10.30;99.90;;;;;;4988824;28;20045;-88
2022/12/18 12:30:08;;;;;;;5.00;3.92;;;10.40;99.90;;;;;;5000241;28;20084;-87
2022/12/18 12:32:46;;;;;;;5.28;3.90;;;10.40;99.90;;;;;;4982315;28;20064;-88
2022/12/18 12:35:35;;;;;;;7.03;4.60;;;10.40;99.90;;;;;;5004803;28;20041;-86
2022/12/18 12:38:15;;;;;;;5.78;4.07;;;10.40;99.90;;;;;;4987600;28;20034;-87
2022/12/18 12:40:51;;;;;;;6.13;4.30;;;10.40;99.90;;;;;;4987970;28;20042;-86
2022/12/18 12:43:25;;;;;;;5.25;4.10;;;10.40;99.90;;;;;;4986753;28;20038;-88
2022/12/18 12:46:05;;;;;;;7.70;4.60;;;10.40;99.90;;;;;;5000082;28;20133;-87
2022/12/18 12:49:01;;;;;;;6.60;4.93;;;10.60;99.90;;;;;;5005828;28;20018;-87
2022/12/18 12:51:34;;;;;;;6.07;4.10;;;10.70;99.90;;;;;;4977544;28;20030;-87
2022/12/18 12:54:02;;;;;;;7.15;4.65;;;10.70;99.90;;;;;;5055493;28;20097;-87
2022/12/18 12:56:42;;;;;;;6.72;4.70;;;10.90;99.90;;;;;;5057726;28;20107;-88
2022/12/18 12:59:23;;;;;;;10.60;5.93;;;10.80;99.90;;;;;;5041488;28;20111;-89
2022/12/18 13:01:52;;;;;;;7.63;5.05;;;10.60;99.90;;;;;;5043824;28;20060;-88
2022/12/18 13:04:40;;;;;;;5.88;4.82;;;10.70;99.90;;;;;;5049451;28;20116;-88
2022/12/18 13:07:20;;;;;;;6.75;5.18;;;10.70;99.90;;;;;;5048701;28;20090;-88
2022/12/18 13:10:34;;;;;;;8.82;5.30;;;10.60;99.90;;;;;;5048122;28;20793;-87
2022/12/18 13:13:06;;;;;;;7.18;5.07;;;10.60;99.90;;;;;;5047014;28;20040;-88
2022/12/18 13:15:43;;;;;;;7.18;5.38;;;10.60;99.90;;;;;;5062534;28;20037;-87
2022/12/18 13:18:09;;;;;;;7.15;5.18;;;10.70;99.90;;;;;;5049464;28;20056;-87